Etusivu
METAR-TAF:

METAR-TAF

Lentoasemat :

Benton Harbor, Michigan, Yhdysvallat

Leveyspiiri: 42-07-43N, Pituuspiiri: 086-25-42W, korkeus merenpinnasta: 196 m

Tämänhetkinen sää

Tämä raportti tehtiin 12 minuuttia sitten, kello 10.53 UTC
Tuuli 6 kn idästä
Lämpötila 19°C
Kosteus 94%
Ilmanpaine 1008 hPa
Näkyvyys: 8.0 km
Pilvistä 700 ft:n korkeudessa
heikkoa sadetta, utua

METAR: KBEH 161053Z AUTO 09006KT 5SM -RA BR OVC007 19/18 A2976 RMK AO2 RAE0957B23 SLP074 P0002 T01890178 $

Aika: 07:05 (11:05 UTC)


TAF: puuttuu

Säähavainnot ja -ennusteet yli 4000 lentoasemalta (METAR- ja TAF-raportit).

Käytössä olevat sääasemat on merkitty karttaan keltaisilla ja punaisilla pisteillä.

Aseta hiiri pisteen päälle nähdäksesi sääaseman nimen.

Klikkaa sitten nähdäksesi säähavainnot ja -ennusteet.

Kartan vaihtaminen: klikkaa mustalla rastilla varustettuja vihreitä pisteitä, niin voit zoomata sisään; viivalla varustettua vihreää pistettä, niin voit zoomata ulos tai vihreitä nuolia, niin pääset viereisille kartoille.


METAR-TAF: